Bonsall, California
Current Conditions -  °F | °C
As of 2:15 PM on Friday 24 Oct 2014 (Local Time) from KL18 Reporting Station
Clear Clear  
Wind Chill: 90°   Ceiling: Unl
Heat Index: 90°   Visibility: 10mi
Dew Point: 37°   Wind: 9mph
Humidity: 16%   Direction: 230°SW
Pressure: 29.95"   Gusts: NA
Location:  33.29°N, 117.23°W
Report Text: KL18 242115Z AUTO 23008KT 200V260 10SM CLR 32/03 A2995 RMK AO2
Loading
Personal Weather Stations






























Interactive Weather Map
Tropical Storm Tracking
New forecast layout! Learn more

10-Day Weather Forecast

Advertisements
Track Severe Weather on mobile